sensor_id;sensor_type;location;lat;lon;timestamp;temperature;humidity
20512;DHT22;10414;52.074;5.126;2023-11-22T00:02:16;6.80;99.90
20512;DHT22;10414;52.074;5.126;2023-11-22T00:04:43;6.50;99.90
20512;DHT22;10414;52.074;5.126;2023-11-22T00:07:14;6.50;99.90
20512;DHT22;10414;52.074;5.126;2023-11-22T00:09:41;6.70;99.90
20512;DHT22;10414;52.074;5.126;2023-11-22T00:12:08;7.00;99.90
20512;DHT22;10414;52.074;5.126;2023-11-22T00:14:35;6.80;99.90
20512;DHT22;10414;52.074;5.126;2023-11-22T00:17:02;6.60;99.90
20512;DHT22;10414;52.074;5.126;2023-11-22T00:19:29;6.60;99.90
20512;DHT22;10414;52.074;5.126;2023-11-22T00:21:56;6.80;99.90
20512;DHT22;10414;52.074;5.126;2023-11-22T00:24:24;6.70;99.90
20512;DHT22;10414;52.074;5.126;2023-11-22T00:26:51;6.70;99.90
20512;DHT22;10414;52.074;5.126;2023-11-22T00:29:18;6.80;99.90
20512;DHT22;10414;52.074;5.126;2023-11-22T00:31:45;6.80;99.90
20512;DHT22;10414;52.074;5.126;2023-11-22T00:34:12;6.90;99.90
20512;DHT22;10414;52.074;5.126;2023-11-22T00:36:38;7.00;99.90
20512;DHT22;10414;52.074;5.126;2023-11-22T00:39:06;6.70;99.90
20512;DHT22;10414;52.074;5.126;2023-11-22T00:41:38;6.90;99.90
20512;DHT22;10414;52.074;5.126;2023-11-22T00:44:05;6.90;99.90
20512;DHT22;10414;52.074;5.126;2023-11-22T00:46:32;6.70;99.90
20512;DHT22;10414;52.074;5.126;2023-11-22T00:48:59;6.60;99.90
20512;DHT22;10414;52.074;5.126;2023-11-22T00:51:26;6.60;99.90
20512;DHT22;10414;52.074;5.126;2023-11-22T00:53:52;6.50;99.90
20512;DHT22;10414;52.074;5.126;2023-11-22T00:56:20;6.80;99.90
20512;DHT22;10414;52.074;5.126;2023-11-22T00:58:48;7.00;99.90
20512;DHT22;10414;52.074;5.126;2023-11-22T01:01:16;7.00;99.90
20512;DHT22;10414;52.074;5.126;2023-11-22T01:03:43;7.10;99.90
20512;DHT22;10414;52.074;5.126;2023-11-22T01:06:10;6.90;99.90
20512;DHT22;10414;52.074;5.126;2023-11-22T01:08:40;6.90;99.90
20512;DHT22;10414;52.074;5.126;2023-11-22T01:11:09;7.00;99.90
20512;DHT22;10414;52.074;5.126;2023-11-22T01:13:36;6.80;99.90
20512;DHT22;10414;52.074;5.126;2023-11-22T01:16:08;6.70;99.90
20512;DHT22;10414;52.074;5.126;2023-11-22T01:18:35;6.70;99.90
20512;DHT22;10414;52.074;5.126;2023-11-22T01:21:02;6.60;99.90
20512;DHT22;10414;52.074;5.126;2023-11-22T01:23:29;6.50;99.90
20512;DHT22;10414;52.074;5.126;2023-11-22T01:25:57;6.40;99.90
20512;DHT22;10414;52.074;5.126;2023-11-22T01:28:27;6.50;99.90
20512;DHT22;10414;52.074;5.126;2023-11-22T01:30:54;6.60;99.90
20512;DHT22;10414;52.074;5.126;2023-11-22T01:33:22;6.60;99.90
20512;DHT22;10414;52.074;5.126;2023-11-22T01:35:49;6.50;99.90
20512;DHT22;10414;52.074;5.126;2023-11-22T01:38:16;6.40;99.90
20512;DHT22;10414;52.074;5.126;2023-11-22T01:40:44;6.20;99.90
20512;DHT22;10414;52.074;5.126;2023-11-22T01:43:13;6.30;99.90
20512;DHT22;10414;52.074;5.126;2023-11-22T01:45:40;6.40;99.90
20512;DHT22;10414;52.074;5.126;2023-11-22T01:48:07;6.40;99.90
20512;DHT22;10414;52.074;5.126;2023-11-22T01:50:38;6.40;99.90
20512;DHT22;10414;52.074;5.126;2023-11-22T01:53:09;6.50;99.90
20512;DHT22;10414;52.074;5.126;2023-11-22T01:55:38;6.50;99.90
20512;DHT22;10414;52.074;5.126;2023-11-22T01:58:06;6.30;99.90
20512;DHT22;10414;52.074;5.126;2023-11-22T02:00:44;6.10;99.90
20512;DHT22;10414;52.074;5.126;2023-11-22T02:03:12;6.00;99.90
20512;DHT22;10414;52.074;5.126;2023-11-22T02:05:42;5.90;99.90
20512;DHT22;10414;52.074;5.126;2023-11-22T02:08:09;5.90;99.90
20512;DHT22;10414;52.074;5.126;2023-11-22T02:10:36;6.10;99.90
20512;DHT22;10414;52.074;5.126;2023-11-22T02:13:03;5.90;99.90
20512;DHT22;10414;52.074;5.126;2023-11-22T02:15:33;5.80;99.90
20512;DHT22;10414;52.074;5.126;2023-11-22T02:18:00;5.70;99.90
20512;DHT22;10414;52.074;5.126;2023-11-22T02:20:27;5.90;99.90
20512;DHT22;10414;52.074;5.126;2023-11-22T02:22:55;5.70;99.90
20512;DHT22;10414;52.074;5.126;2023-11-22T02:25:23;5.60;99.90
20512;DHT22;10414;52.074;5.126;2023-11-22T02:27:50;5.50;99.90
20512;DHT22;10414;52.074;5.126;2023-11-22T02:30:17;5.60;99.90
20512;DHT22;10414;52.074;5.126;2023-11-22T02:32:44;5.80;99.90
20512;DHT22;10414;52.074;5.126;2023-11-22T02:35:13;5.90;99.90
20512;DHT22;10414;52.074;5.126;2023-11-22T02:37:41;6.10;99.90
20512;DHT22;10414;52.074;5.126;2023-11-22T02:40:16;6.20;99.90
20512;DHT22;10414;52.074;5.126;2023-11-22T02:42:45;5.80;99.90
20512;DHT22;10414;52.074;5.126;2023-11-22T02:45:13;5.90;99.90
20512;DHT22;10414;52.074;5.126;2023-11-22T02:47:40;5.70;99.90
20512;DHT22;10414;52.074;5.126;2023-11-22T02:50:07;5.60;99.90
20512;DHT22;10414;52.074;5.126;2023-11-22T02:52:34;5.60;99.90
20512;DHT22;10414;52.074;5.126;2023-11-22T02:55:01;5.40;99.90
20512;DHT22;10414;52.074;5.126;2023-11-22T02:57:28;5.30;99.90
20512;DHT22;10414;52.074;5.126;2023-11-22T02:59:56;5.30;99.90
20512;DHT22;10414;52.074;5.126;2023-11-22T03:02:23;5.30;99.90
20512;DHT22;10414;52.074;5.126;2023-11-22T03:04:51;5.30;99.90
20512;DHT22;10414;52.074;5.126;2023-11-22T03:07:18;5.20;99.90
20512;DHT22;10414;52.074;5.126;2023-11-22T03:09:46;5.10;99.90
20512;DHT22;10414;52.074;5.126;2023-11-22T03:12:13;5.10;99.90
20512;DHT22;10414;52.074;5.126;2023-11-22T03:14:40;5.10;99.90
20512;DHT22;10414;52.074;5.126;2023-11-22T03:17:09;5.10;99.90
20512;DHT22;10414;52.074;5.126;2023-11-22T03:19:39;5.00;99.90
20512;DHT22;10414;52.074;5.126;2023-11-22T03:22:05;5.10;99.90
20512;DHT22;10414;52.074;5.126;2023-11-22T03:24:32;5.10;99.90
20512;DHT22;10414;52.074;5.126;2023-11-22T03:27:00;5.00;99.90
20512;DHT22;10414;52.074;5.126;2023-11-22T03:29:27;5.20;99.90
20512;DHT22;10414;52.074;5.126;2023-11-22T03:31:54;5.30;99.90
20512;DHT22;10414;52.074;5.126;2023-11-22T03:34:26;5.10;99.90
20512;DHT22;10414;52.074;5.126;2023-11-22T03:36:53;5.30;99.90
20512;DHT22;10414;52.074;5.126;2023-11-22T03:39:19;5.30;99.90
20512;DHT22;10414;52.074;5.126;2023-11-22T03:41:48;5.30;99.90
20512;DHT22;10414;52.074;5.126;2023-11-22T03:44:17;5.30;99.90
20512;DHT22;10414;52.074;5.126;2023-11-22T03:46:44;5.30;99.90
20512;DHT22;10414;52.074;5.126;2023-11-22T03:49:11;5.40;99.90
20512;DHT22;10414;52.074;5.126;2023-11-22T03:51:42;5.20;99.90
20512;DHT22;10414;52.074;5.126;2023-11-22T03:54:09;5.20;99.90
20512;DHT22;10414;52.074;5.126;2023-11-22T03:56:38;5.20;99.90
20512;DHT22;10414;52.074;5.126;2023-11-22T03:59:05;5.30;99.90
20512;DHT22;10414;52.074;5.126;2023-11-22T04:01:34;5.30;99.90
20512;DHT22;10414;52.074;5.126;2023-11-22T04:04:04;5.20;99.90
20512;DHT22;10414;52.074;5.126;2023-11-22T04:06:31;5.20;99.90
20512;DHT22;10414;52.074;5.126;2023-11-22T04:09:00;5.10;99.90
20512;DHT22;10414;52.074;5.126;2023-11-22T04:11:27;5.20;99.90
20512;DHT22;10414;52.074;5.126;2023-11-22T04:13:54;5.30;99.90
20512;DHT22;10414;52.074;5.126;2023-11-22T04:16:21;5.40;99.90
20512;DHT22;10414;52.074;5.126;2023-11-22T04:18:48;5.50;99.90
20512;DHT22;10414;52.074;5.126;2023-11-22T04:21:15;5.50;99.90
20512;DHT22;10414;52.074;5.126;2023-11-22T04:23:42;5.50;99.90
20512;DHT22;10414;52.074;5.126;2023-11-22T04:26:14;5.90;99.90
20512;DHT22;10414;52.074;5.126;2023-11-22T04:28:41;6.10;99.90
20512;DHT22;10414;52.074;5.126;2023-11-22T04:31:08;6.20;99.90
20512;DHT22;10414;52.074;5.126;2023-11-22T04:33:37;6.10;99.90
20512;DHT22;10414;52.074;5.126;2023-11-22T04:36:05;6.20;99.90
20512;DHT22;10414;52.074;5.126;2023-11-22T04:38:32;6.30;99.90
20512;DHT22;10414;52.074;5.126;2023-11-22T04:40:59;6.20;99.90
20512;DHT22;10414;52.074;5.126;2023-11-22T04:43:27;6.30;99.90
20512;DHT22;10414;52.074;5.126;2023-11-22T04:45:54;6.10;99.90
20512;DHT22;10414;52.074;5.126;2023-11-22T04:48:21;5.60;99.90
20512;DHT22;10414;52.074;5.126;2023-11-22T04:50:50;5.20;99.90
20512;DHT22;10414;52.074;5.126;2023-11-22T04:53:19;5.10;99.90
20512;DHT22;10414;52.074;5.126;2023-11-22T04:55:46;5.00;99.90
20512;DHT22;10414;52.074;5.126;2023-11-22T04:58:14;4.90;99.90
20512;DHT22;10414;52.074;5.126;2023-11-22T05:00:42;4.90;99.90
20512;DHT22;10414;52.074;5.126;2023-11-22T05:03:08;5.10;99.90
20512;DHT22;10414;52.074;5.126;2023-11-22T05:05:35;5.10;99.90
20512;DHT22;10414;52.074;5.126;2023-11-22T05:08:02;5.00;99.90
20512;DHT22;10414;52.074;5.126;2023-11-22T05:10:29;4.90;99.90
20512;DHT22;10414;52.074;5.126;2023-11-22T05:12:56;4.90;99.90
20512;DHT22;10414;52.074;5.126;2023-11-22T05:15:25;5.00;99.90
20512;DHT22;10414;52.074;5.126;2023-11-22T05:17:53;5.20;99.90
20512;DHT22;10414;52.074;5.126;2023-11-22T05:20:20;5.20;99.90
20512;DHT22;10414;52.074;5.126;2023-11-22T05:22:46;5.30;99.90
20512;DHT22;10414;52.074;5.126;2023-11-22T05:25:13;5.20;99.90
20512;DHT22;10414;52.074;5.126;2023-11-22T05:27:40;5.20;99.90
20512;DHT22;10414;52.074;5.126;2023-11-22T05:30:08;5.10;99.90
20512;DHT22;10414;52.074;5.126;2023-11-22T05:32:36;5.30;99.90
20512;DHT22;10414;52.074;5.126;2023-11-22T05:35:05;5.20;99.90
20512;DHT22;10414;52.074;5.126;2023-11-22T05:37:35;5.30;99.90
20512;DHT22;10414;52.074;5.126;2023-11-22T05:40:02;5.00;99.90
20512;DHT22;10414;52.074;5.126;2023-11-22T05:42:30;4.80;99.90
20512;DHT22;10414;52.074;5.126;2023-11-22T05:44:59;4.70;99.90
20512;DHT22;10414;52.074;5.126;2023-11-22T05:47:26;4.70;99.90
20512;DHT22;10414;52.074;5.126;2023-11-22T05:49:53;4.60;99.90
20512;DHT22;10414;52.074;5.126;2023-11-22T05:52:23;4.60;99.90
20512;DHT22;10414;52.074;5.126;2023-11-22T05:54:49;4.60;99.90
20512;DHT22;10414;52.074;5.126;2023-11-22T05:57:16;4.60;99.90
20512;DHT22;10414;52.074;5.126;2023-11-22T05:59:45;4.80;99.90
20512;DHT22;10414;52.074;5.126;2023-11-22T06:02:13;4.60;99.90
20512;DHT22;10414;52.074;5.126;2023-11-22T06:04:40;4.70;99.90
20512;DHT22;10414;52.074;5.126;2023-11-22T06:07:09;4.80;99.90
20512;DHT22;10414;52.074;5.126;2023-11-22T06:09:37;4.90;99.90
20512;DHT22;10414;52.074;5.126;2023-11-22T06:12:06;5.00;99.90
20512;DHT22;10414;52.074;5.126;2023-11-22T06:14:33;5.00;99.90
20512;DHT22;10414;52.074;5.126;2023-11-22T06:17:06;5.00;99.90
20512;DHT22;10414;52.074;5.126;2023-11-22T06:19:33;4.90;99.90
20512;DHT22;10414;52.074;5.126;2023-11-22T06:22:01;5.20;99.90
20512;DHT22;10414;52.074;5.126;2023-11-22T06:24:28;5.00;99.90
20512;DHT22;10414;52.074;5.126;2023-11-22T06:27:03;5.20;99.90
20512;DHT22;10414;52.074;5.126;2023-11-22T06:29:31;5.60;99.90
20512;DHT22;10414;52.074;5.126;2023-11-22T06:32:02;5.40;99.90
20512;DHT22;10414;52.074;5.126;2023-11-22T06:34:29;5.30;99.90
20512;DHT22;10414;52.074;5.126;2023-11-22T06:36:56;5.30;99.90
20512;DHT22;10414;52.074;5.126;2023-11-22T06:39:36;5.30;99.90
20512;DHT22;10414;52.074;5.126;2023-11-22T06:42:05;5.20;99.90
20512;DHT22;10414;52.074;5.126;2023-11-22T06:44:32;5.10;99.90
20512;DHT22;10414;52.074;5.126;2023-11-22T06:46:59;4.80;99.90
20512;DHT22;10414;52.074;5.126;2023-11-22T06:49:27;4.80;99.90
20512;DHT22;10414;52.074;5.126;2023-11-22T06:51:54;4.90;99.90
20512;DHT22;10414;52.074;5.126;2023-11-22T06:54:22;4.90;99.90
20512;DHT22;10414;52.074;5.126;2023-11-22T06:56:48;4.80;99.90
20512;DHT22;10414;52.074;5.126;2023-11-22T06:59:20;5.00;99.90
20512;DHT22;10414;52.074;5.126;2023-11-22T07:01:46;5.00;99.90
20512;DHT22;10414;52.074;5.126;2023-11-22T07:04:17;5.00;99.90
20512;DHT22;10414;52.074;5.126;2023-11-22T07:06:44;5.00;99.90
20512;DHT22;10414;52.074;5.126;2023-11-22T07:09:11;4.90;99.90
20512;DHT22;10414;52.074;5.126;2023-11-22T07:11:39;4.80;99.90
20512;DHT22;10414;52.074;5.126;2023-11-22T07:14:06;4.90;99.90
20512;DHT22;10414;52.074;5.126;2023-11-22T07:16:34;5.00;99.90
20512;DHT22;10414;52.074;5.126;2023-11-22T07:19:01;5.40;99.90
20512;DHT22;10414;52.074;5.126;2023-11-22T07:21:28;5.60;99.90
20512;DHT22;10414;52.074;5.126;2023-11-22T07:23:59;5.60;99.90
20512;DHT22;10414;52.074;5.126;2023-11-22T07:26:25;5.70;99.90
20512;DHT22;10414;52.074;5.126;2023-11-22T07:28:56;5.60;99.90
20512;DHT22;10414;52.074;5.126;2023-11-22T07:31:25;5.60;99.90
20512;DHT22;10414;52.074;5.126;2023-11-22T07:33:54;5.60;99.90
20512;DHT22;10414;52.074;5.126;2023-11-22T07:36:21;5.90;99.90
20512;DHT22;10414;52.074;5.126;2023-11-22T07:38:47;6.00;99.90
20512;DHT22;10414;52.074;5.126;2023-11-22T07:41:17;5.80;99.90
20512;DHT22;10414;52.074;5.126;2023-11-22T07:43:47;5.90;99.90
20512;DHT22;10414;52.074;5.126;2023-11-22T07:46:17;5.70;99.90
20512;DHT22;10414;52.074;5.126;2023-11-22T07:48:44;5.70;99.90
20512;DHT22;10414;52.074;5.126;2023-11-22T07:51:20;5.80;99.90
20512;DHT22;10414;52.074;5.126;2023-11-22T07:53:49;5.70;99.90
20512;DHT22;10414;52.074;5.126;2023-11-22T07:56:16;5.70;99.90
20512;DHT22;10414;52.074;5.126;2023-11-22T07:58:46;5.60;99.90
20512;DHT22;10414;52.074;5.126;2023-11-22T08:01:13;5.40;99.90
20512;DHT22;10414;52.074;5.126;2023-11-22T08:03:42;5.50;99.90
20512;DHT22;10414;52.074;5.126;2023-11-22T08:06:11;5.80;99.90
20512;DHT22;10414;52.074;5.126;2023-11-22T08:08:41;6.00;99.90
20512;DHT22;10414;52.074;5.126;2023-11-22T08:11:08;6.70;99.90
20512;DHT22;10414;52.074;5.126;2023-11-22T08:13:40;7.10;99.90
20512;DHT22;10414;52.074;5.126;2023-11-22T08:16:08;7.20;99.90
20512;DHT22;10414;52.074;5.126;2023-11-22T08:18:35;7.20;99.90
20512;DHT22;10414;52.074;5.126;2023-11-22T08:21:02;7.10;99.90
20512;DHT22;10414;52.074;5.126;2023-11-22T08:23:29;6.90;99.90
20512;DHT22;10414;52.074;5.126;2023-11-22T08:25:59;6.90;99.90
20512;DHT22;10414;52.074;5.126;2023-11-22T08:28:29;6.70;99.90
20512;DHT22;10414;52.074;5.126;2023-11-22T08:30:56;6.90;99.90
20512;DHT22;10414;52.074;5.126;2023-11-22T08:33:23;6.80;99.90
20512;DHT22;10414;52.074;5.126;2023-11-22T08:35:50;6.60;99.90
20512;DHT22;10414;52.074;5.126;2023-11-22T08:38:25;7.10;99.90
20512;DHT22;10414;52.074;5.126;2023-11-22T08:40:52;7.40;99.90
20512;DHT22;10414;52.074;5.126;2023-11-22T08:43:22;7.70;99.90
20512;DHT22;10414;52.074;5.126;2023-11-22T08:45:51;8.10;99.90
20512;DHT22;10414;52.074;5.126;2023-11-22T08:48:19;8.40;99.90
20512;DHT22;10414;52.074;5.126;2023-11-22T08:50:46;8.60;99.90
20512;DHT22;10414;52.074;5.126;2023-11-22T08:53:14;8.10;99.90
20512;DHT22;10414;52.074;5.126;2023-11-22T08:55:43;7.90;99.90
20512;DHT22;10414;52.074;5.126;2023-11-22T08:58:10;8.20;99.90
20512;DHT22;10414;52.074;5.126;2023-11-22T09:00:41;8.40;99.90
20512;DHT22;10414;52.074;5.126;2023-11-22T09:03:10;7.70;99.90
20512;DHT22;10414;52.074;5.126;2023-11-22T09:05:38;7.60;99.90
20512;DHT22;10414;52.074;5.126;2023-11-22T09:08:05;7.40;99.90
20512;DHT22;10414;52.074;5.126;2023-11-22T09:10:32;7.60;99.90
20512;DHT22;10414;52.074;5.126;2023-11-22T09:12:59;7.30;99.90
20512;DHT22;10414;52.074;5.126;2023-11-22T09:15:26;7.10;99.90
20512;DHT22;10414;52.074;5.126;2023-11-22T09:17:56;7.20;99.90
20512;DHT22;10414;52.074;5.126;2023-11-22T09:20:26;7.40;99.90
20512;DHT22;10414;52.074;5.126;2023-11-22T09:22:54;7.30;99.90
20512;DHT22;10414;52.074;5.126;2023-11-22T09:25:22;7.40;99.90
20512;DHT22;10414;52.074;5.126;2023-11-22T09:27:51;7.50;99.90
20512;DHT22;10414;52.074;5.126;2023-11-22T09:30:26;7.40;99.90
20512;DHT22;10414;52.074;5.126;2023-11-22T09:33:03;7.20;99.90
20512;DHT22;10414;52.074;5.126;2023-11-22T09:35:31;7.30;99.90
20512;DHT22;10414;52.074;5.126;2023-11-22T09:38:02;7.40;99.90
20512;DHT22;10414;52.074;5.126;2023-11-22T09:40:29;7.20;99.90
20512;DHT22;10414;52.074;5.126;2023-11-22T09:42:57;7.30;99.90
20512;DHT22;10414;52.074;5.126;2023-11-22T09:45:25;7.40;99.90
20512;DHT22;10414;52.074;5.126;2023-11-22T09:47:52;7.60;99.90
20512;DHT22;10414;52.074;5.126;2023-11-22T09:50:26;7.90;99.90
20512;DHT22;10414;52.074;5.126;2023-11-22T09:53:00;8.30;99.90
20512;DHT22;10414;52.074;5.126;2023-11-22T09:55:30;8.30;99.90
20512;DHT22;10414;52.074;5.126;2023-11-22T09:58:01;8.80;99.90
20512;DHT22;10414;52.074;5.126;2023-11-22T10:00:28;8.80;99.90
20512;DHT22;10414;52.074;5.126;2023-11-22T10:02:56;8.10;99.90
20512;DHT22;10414;52.074;5.126;2023-11-22T10:05:24;8.00;99.90
20512;DHT22;10414;52.074;5.126;2023-11-22T10:07:54;8.20;99.90
20512;DHT22;10414;52.074;5.126;2023-11-22T10:10:21;8.40;99.90
20512;DHT22;10414;52.074;5.126;2023-11-22T10:12:54;8.40;99.90
20512;DHT22;10414;52.074;5.126;2023-11-22T10:15:22;8.40;99.90
20512;DHT22;10414;52.074;5.126;2023-11-22T10:17:55;8.80;99.90
20512;DHT22;10414;52.074;5.126;2023-11-22T10:20:35;8.70;99.90
20512;DHT22;10414;52.074;5.126;2023-11-22T10:23:03;8.50;99.90
20512;DHT22;10414;52.074;5.126;2023-11-22T10:25:30;8.40;99.90
20512;DHT22;10414;52.074;5.126;2023-11-22T10:27:58;7.90;99.90
20512;DHT22;10414;52.074;5.126;2023-11-22T10:30:24;8.10;99.90
20512;DHT22;10414;52.074;5.126;2023-11-22T10:32:54;7.90;99.90
20512;DHT22;10414;52.074;5.126;2023-11-22T10:35:21;7.60;99.90
20512;DHT22;10414;52.074;5.126;2023-11-22T10:37:49;7.40;99.90
20512;DHT22;10414;52.074;5.126;2023-11-22T10:40:16;7.50;99.90
20512;DHT22;10414;52.074;5.126;2023-11-22T10:42:43;7.70;99.90
20512;DHT22;10414;52.074;5.126;2023-11-22T10:45:12;8.50;99.90
20512;DHT22;10414;52.074;5.126;2023-11-22T10:47:40;8.30;99.90
20512;DHT22;10414;52.074;5.126;2023-11-22T10:50:11;8.20;99.90
20512;DHT22;10414;52.074;5.126;2023-11-22T10:52:41;8.30;99.90
20512;DHT22;10414;52.074;5.126;2023-11-22T10:55:11;8.20;99.90
20512;DHT22;10414;52.074;5.126;2023-11-22T10:57:40;8.90;99.90
20512;DHT22;10414;52.074;5.126;2023-11-22T11:00:09;8.70;99.90
20512;DHT22;10414;52.074;5.126;2023-11-22T11:02:41;8.70;99.90
20512;DHT22;10414;52.074;5.126;2023-11-22T11:05:15;8.40;99.90
20512;DHT22;10414;52.074;5.126;2023-11-22T11:07:48;8.50;99.90
20512;DHT22;10414;52.074;5.126;2023-11-22T11:10:20;8.30;99.90
20512;DHT22;10414;52.074;5.126;2023-11-22T11:12:48;8.40;99.90
20512;DHT22;10414;52.074;5.126;2023-11-22T11:15:15;8.60;99.90
20512;DHT22;10414;52.074;5.126;2023-11-22T11:17:45;8.70;99.90
20512;DHT22;10414;52.074;5.126;2023-11-22T11:20:16;9.20;99.90
20512;DHT22;10414;52.074;5.126;2023-11-22T11:22:44;9.20;99.90
20512;DHT22;10414;52.074;5.126;2023-11-22T11:25:15;8.70;99.90
20512;DHT22;10414;52.074;5.126;2023-11-22T11:27:55;8.10;99.90
20512;DHT22;10414;52.074;5.126;2023-11-22T11:30:41;7.80;99.90
20512;DHT22;10414;52.074;5.126;2023-11-22T11:33:09;7.80;99.90
20512;DHT22;10414;52.074;5.126;2023-11-22T11:35:42;7.80;99.90
20512;DHT22;10414;52.074;5.126;2023-11-22T11:38:13;8.10;99.90
20512;DHT22;10414;52.074;5.126;2023-11-22T11:40:41;7.90;99.90
20512;DHT22;10414;52.074;5.126;2023-11-22T11:43:10;8.30;99.90
20512;DHT22;10414;52.074;5.126;2023-11-22T11:45:41;8.40;99.90
20512;DHT22;10414;52.074;5.126;2023-11-22T11:48:12;8.40;99.90
20512;DHT22;10414;52.074;5.126;2023-11-22T11:50:39;8.30;99.90
20512;DHT22;10414;52.074;5.126;2023-11-22T11:53:09;8.50;99.90
20512;DHT22;10414;52.074;5.126;2023-11-22T11:55:36;8.50;99.90
20512;DHT22;10414;52.074;5.126;2023-11-22T11:58:06;8.30;99.90
20512;DHT22;10414;52.074;5.126;2023-11-22T12:00:36;8.10;99.90
20512;DHT22;10414;52.074;5.126;2023-11-22T12:03:06;7.80;99.90
20512;DHT22;10414;52.074;5.126;2023-11-22T12:05:35;7.80;99.90
20512;DHT22;10414;52.074;5.126;2023-11-22T12:08:02;8.00;99.90
20512;DHT22;10414;52.074;5.126;2023-11-22T12:10:31;7.80;99.90
20512;DHT22;10414;52.074;5.126;2023-11-22T12:12:58;7.90;99.90
20512;DHT22;10414;52.074;5.126;2023-11-22T12:15:27;7.90;99.90
20512;DHT22;10414;52.074;5.126;2023-11-22T12:17:56;7.90;99.90
20512;DHT22;10414;52.074;5.126;2023-11-22T12:20:23;8.10;99.90
20512;DHT22;10414;52.074;5.126;2023-11-22T12:22:57;8.10;99.90
20512;DHT22;10414;52.074;5.126;2023-11-22T12:25:26;8.20;99.90
20512;DHT22;10414;52.074;5.126;2023-11-22T12:27:54;8.00;99.90
20512;DHT22;10414;52.074;5.126;2023-11-22T12:30:31;8.00;99.90
20512;DHT22;10414;52.074;5.126;2023-11-22T12:33:05;8.40;99.90
20512;DHT22;10414;52.074;5.126;2023-11-22T12:35:33;8.40;99.90
20512;DHT22;10414;52.074;5.126;2023-11-22T12:38:01;8.50;99.90
20512;DHT22;10414;52.074;5.126;2023-11-22T12:40:29;8.70;99.90
20512;DHT22;10414;52.074;5.126;2023-11-22T12:42:59;8.90;99.90
20512;DHT22;10414;52.074;5.126;2023-11-22T12:45:27;8.70;99.90
20512;DHT22;10414;52.074;5.126;2023-11-22T12:47:55;8.60;99.90
20512;DHT22;10414;52.074;5.126;2023-11-22T12:50:32;8.30;99.90
20512;DHT22;10414;52.074;5.126;2023-11-22T12:53:08;8.10;99.90
20512;DHT22;10414;52.074;5.126;2023-11-22T12:55:41;8.20;99.90
20512;DHT22;10414;52.074;5.126;2023-11-22T12:58:10;8.10;99.90
20512;DHT22;10414;52.074;5.126;2023-11-22T13:00:40;8.20;99.90
20512;DHT22;10414;52.074;5.126;2023-11-22T13:03:07;8.00;99.90
20512;DHT22;10414;52.074;5.126;2023-11-22T13:05:37;8.10;99.90
20512;DHT22;10414;52.074;5.126;2023-11-22T13:08:04;8.10;99.90
20512;DHT22;10414;52.074;5.126;2023-11-22T13:10:31;7.80;99.90
20512;DHT22;10414;52.074;5.126;2023-11-22T13:12:59;7.80;99.90
20512;DHT22;10414;52.074;5.126;2023-11-22T13:15:26;7.90;99.90
20512;DHT22;10414;52.074;5.126;2023-11-22T13:17:53;7.70;99.90
20512;DHT22;10414;52.074;5.126;2023-11-22T13:20:24;7.60;99.90
20512;DHT22;10414;52.074;5.126;2023-11-22T13:22:54;7.50;99.90
20512;DHT22;10414;52.074;5.126;2023-11-22T13:25:21;7.80;99.90
20512;DHT22;10414;52.074;5.126;2023-11-22T13:27:49;7.80;99.90
20512;DHT22;10414;52.074;5.126;2023-11-22T13:30:24;7.80;99.90
20512;DHT22;10414;52.074;5.126;2023-11-22T13:32:56;7.80;99.90
20512;DHT22;10414;52.074;5.126;2023-11-22T13:35:23;7.90;99.90
20512;DHT22;10414;52.074;5.126;2023-11-22T13:37:54;7.90;99.90
20512;DHT22;10414;52.074;5.126;2023-11-22T13:40:25;7.80;99.90
20512;DHT22;10414;52.074;5.126;2023-11-22T13:42:56;8.00;99.90
20512;DHT22;10414;52.074;5.126;2023-11-22T13:45:24;7.80;99.90
20512;DHT22;10414;52.074;5.126;2023-11-22T13:47:54;7.60;99.90
20512;DHT22;10414;52.074;5.126;2023-11-22T13:50:24;7.50;99.90
20512;DHT22;10414;52.074;5.126;2023-11-22T13:52:54;7.40;99.90
20512;DHT22;10414;52.074;5.126;2023-11-22T13:55:22;7.50;99.90
20512;DHT22;10414;52.074;5.126;2023-11-22T13:57:51;7.70;99.90
20512;DHT22;10414;52.074;5.126;2023-11-22T14:00:23;7.40;99.90
20512;DHT22;10414;52.074;5.126;2023-11-22T14:02:52;7.30;99.90
20512;DHT22;10414;52.074;5.126;2023-11-22T14:05:21;7.40;99.90
20512;DHT22;10414;52.074;5.126;2023-11-22T14:07:48;7.40;99.90
20512;DHT22;10414;52.074;5.126;2023-11-22T14:10:21;7.30;99.90
20512;DHT22;10414;52.074;5.126;2023-11-22T14:12:51;7.10;99.90
20512;DHT22;10414;52.074;5.126;2023-11-22T14:15:18;7.00;99.90
20512;DHT22;10414;52.074;5.126;2023-11-22T14:17:45;6.90;99.90
20512;DHT22;10414;52.074;5.126;2023-11-22T14:20:15;6.90;99.90
20512;DHT22;10414;52.074;5.126;2023-11-22T14:22:42;6.80;99.90
20512;DHT22;10414;52.074;5.126;2023-11-22T14:25:10;6.80;99.90
20512;DHT22;10414;52.074;5.126;2023-11-22T14:27:43;6.90;99.90
20512;DHT22;10414;52.074;5.126;2023-11-22T14:30:11;6.90;99.90
20512;DHT22;10414;52.074;5.126;2023-11-22T14:32:40;7.00;99.90
20512;DHT22;10414;52.074;5.126;2023-11-22T14:35:08;6.80;99.90
20512;DHT22;10414;52.074;5.126;2023-11-22T14:37:38;7.10;99.90
20512;DHT22;10414;52.074;5.126;2023-11-22T14:40:06;6.90;99.90
20512;DHT22;10414;52.074;5.126;2023-11-22T14:42:41;6.80;99.90
20512;DHT22;10414;52.074;5.126;2023-11-22T14:45:11;6.70;99.90
20512;DHT22;10414;52.074;5.126;2023-11-22T14:47:47;6.60;99.90
20512;DHT22;10414;52.074;5.126;2023-11-22T14:50:17;6.70;99.90
20512;DHT22;10414;52.074;5.126;2023-11-22T14:52:45;6.80;99.90
20512;DHT22;10414;52.074;5.126;2023-11-22T14:55:13;6.80;99.90
20512;DHT22;10414;52.074;5.126;2023-11-22T14:57:44;6.90;99.90
20512;DHT22;10414;52.074;5.126;2023-11-22T15:00:13;6.70;99.90
20512;DHT22;10414;52.074;5.126;2023-11-22T15:02:40;6.60;99.90
20512;DHT22;10414;52.074;5.126;2023-11-22T15:05:08;6.60;99.90
20512;DHT22;10414;52.074;5.126;2023-11-22T15:07:35;6.70;99.90
20512;DHT22;10414;52.074;5.126;2023-11-22T15:10:06;6.70;99.90
20512;DHT22;10414;52.074;5.126;2023-11-22T15:12:33;6.60;99.90
20512;DHT22;10414;52.074;5.126;2023-11-22T15:15:00;6.70;99.90
20512;DHT22;10414;52.074;5.126;2023-11-22T15:17:31;6.90;99.90
20512;DHT22;10414;52.074;5.126;2023-11-22T15:19:58;6.80;99.90
20512;DHT22;10414;52.074;5.126;2023-11-22T15:22:25;6.80;99.90
20512;DHT22;10414;52.074;5.126;2023-11-22T15:24:55;6.60;99.90
20512;DHT22;10414;52.074;5.126;2023-11-22T15:27:22;6.50;99.90
20512;DHT22;10414;52.074;5.126;2023-11-22T15:29:49;6.40;99.90
20512;DHT22;10414;52.074;5.126;2023-11-22T15:32:16;6.40;99.90
20512;DHT22;10414;52.074;5.126;2023-11-22T15:34:44;6.40;99.90
20512;DHT22;10414;52.074;5.126;2023-11-22T15:37:11;6.40;99.90
20512;DHT22;10414;52.074;5.126;2023-11-22T15:39:45;6.40;99.90
20512;DHT22;10414;52.074;5.126;2023-11-22T15:42:12;6.40;99.90
20512;DHT22;10414;52.074;5.126;2023-11-22T15:44:40;6.40;99.90
20512;DHT22;10414;52.074;5.126;2023-11-22T15:47:09;6.40;99.90
20512;DHT22;10414;52.074;5.126;2023-11-22T15:49:36;6.40;99.90
20512;DHT22;10414;52.074;5.126;2023-11-22T15:52:06;6.40;99.90
20512;DHT22;10414;52.074;5.126;2023-11-22T15:54:39;6.40;99.90